Barth, Mississippi
Current Conditions -  °F | °C
As of 7:15 AM on Thursday 30 Oct 2014 (Local Time) from KBXA Reporting Station
NA  
Wind Chill: 49°   Ceiling: NA
Heat Index: 49°   Visibility: 10mi
Dew Point: 44°   Wind: 0mph
Humidity: 84%   Direction: NA
Pressure: 30.13"   Gusts: NA
Location:  30.8781°N, 89.5858°W
Report Text: KBXA 301215Z AUTO 00000KT 10SM 09/07 A3013 RMK AO2 T00930067
Loading
Personal Weather Stations






























Interactive Weather Map
Tropical Storm Tracking
New forecast layout! Learn more

10-Day Weather Forecast

Advertisements
Track Severe Weather on mobile